Time;durP1;ratioP1;P1;durP2;ratioP2;P2;SDS_P1;SDS_P2;PMS_P1;PMS_P2;Temp;Humidity;BMP_temperature;BMP_pressure;BME280_temperature;BME280_humidity;BME280_pressure;Samples;Min_cycle;Max_cycle;Signal;HPM_P1;HPM_P2
2023/04/11 00:00:23;;;;;;;22.60;7.17;;;;;;;8.86;100.00;100747.97;5222964;28;20034;-71
2023/04/11 00:02:58;;;;;;;26.80;6.43;;;;;;;8.86;100.00;100750.59;5222896;28;20394;-71
2023/04/11 00:05:30;;;;;;;28.02;6.95;;;;;;;8.84;100.00;100742.78;5222864;28;20099;-70
2023/04/11 00:08:01;;;;;;;23.87;6.33;;;;;;;8.81;100.00;100736.75;5222848;28;20120;-70
2023/04/11 00:10:33;;;;;;;23.77;7.03;;;;;;;8.78;100.00;100742.81;5222727;28;20428;-71
2023/04/11 00:13:06;;;;;;;24.70;8.50;;;;;;;8.74;100.00;100735.91;5223276;28;20038;-71
2023/04/11 00:15:38;;;;;;;28.52;8.23;;;;;;;8.68;100.00;100744.63;5223002;28;20448;-71
2023/04/11 00:18:11;;;;;;;28.50;7.97;;;;;;;8.53;100.00;100736.88;5223029;28;20041;-70
2023/04/11 00:20:42;;;;;;;32.90;8.18;;;;;;;8.53;100.00;100752.47;5222434;28;20040;-71
2023/04/11 00:23:14;;;;;;;26.47;7.27;;;;;;;8.45;100.00;100747.31;5222948;28;20377;-70
2023/04/11 00:25:45;;;;;;;31.87;8.10;;;;;;;8.35;100.00;100737.81;5222703;28;20045;-70
2023/04/11 00:28:16;;;;;;;30.30;7.60;;;;;;;8.25;100.00;100749.13;5222873;28;20053;-70
2023/04/11 00:30:48;;;;;;;25.03;7.50;;;;;;;8.15;100.00;100751.75;5222743;28;20037;-73
2023/04/11 00:33:19;;;;;;;30.50;8.93;;;;;;;8.04;100.00;100740.53;5222021;28;20034;-70
2023/04/11 00:35:50;;;;;;;30.70;8.20;;;;;;;8.02;100.00;100739.69;5222425;28;20041;-71
2023/04/11 00:38:22;;;;;;;30.63;7.87;;;;;;;7.99;100.00;100744.88;5222525;28;20026;-71
2023/04/11 00:40:53;;;;;;;27.90;8.57;;;;;;;8.02;100.00;100744.88;5221187;28;20042;-71
2023/04/11 00:43:25;;;;;;;42.47;9.20;;;;;;;7.96;100.00;100758.72;5222468;28;20033;-71
2023/04/11 00:45:56;;;;;;;28.27;7.87;;;;;;;7.90;100.00;100753.53;5220999;28;20041;-70
2023/04/11 00:48:28;;;;;;;26.33;7.73;;;;;;;7.92;100.00;100754.41;5222037;28;20056;-71
2023/04/11 00:51:00;;;;;;;28.07;8.70;;;;;;;7.91;100.00;100749.22;5205121;28;20037;-71
2023/04/11 00:53:31;;;;;;;33.92;8.70;;;;;;;8.03;100.00;100756.97;5222264;28;20038;-72
2023/04/11 00:56:03;;;;;;;35.50;8.57;;;;;;;8.07;100.00;100747.47;5222085;28;20061;-71
2023/04/11 00:58:36;;;;;;;30.77;8.53;;;;;;;8.10;100.00;100744.81;5221564;28;20099;-72
2023/04/11 01:01:08;;;;;;;32.78;9.82;;;;;;;8.18;100.00;100756.06;5222072;28;20037;-72
2023/04/11 01:03:40;;;;;;;36.13;7.70;;;;;;;8.21;100.00;100750.84;5221734;28;20033;-72
2023/04/11 01:06:13;;;;;;;31.00;8.50;;;;;;;8.17;100.00;100749.16;5222182;28;20496;-71
2023/04/11 01:08:46;;;;;;;26.48;8.15;;;;;;;8.11;100.00;100744.81;5221764;28;20312;-71
2023/04/11 01:11:19;;;;;;;26.77;8.30;;;;;;;8.07;100.00;100747.47;5221930;28;20485;-71
2023/04/11 01:13:50;;;;;;;;;;;;;;;8.03;100.00;100749.19;5222315;28;20116;-70
2023/04/11 01:16:21;;;;;;;32.10;10.55;;;;;;;7.98;100.00;100750.94;5221750;28;20432;-71
2023/04/11 01:18:53;;;;;;;28.93;8.17;;;;;;;7.99;100.00;100756.13;5221894;28;20433;-71
2023/04/11 01:21:25;;;;;;;30.27;7.83;;;;;;;7.89;100.00;100750.94;5221934;28;20041;-71
2023/04/11 01:23:57;;;;;;;43.67;9.00;;;;;;;7.92;100.00;100751.81;5221816;28;20026;-70
2023/04/11 01:26:29;;;;;;;33.40;7.93;;;;;;;7.84;100.00;100744.03;5221843;28;20041;-72
2023/04/11 01:29:01;;;;;;;29.73;7.93;;;;;;;7.86;100.00;100744.03;5221678;28;20049;-70
2023/04/11 01:31:32;;;;;;;33.20;9.90;;;;;;;7.81;100.00;100744.06;5221714;28;20368;-72
2023/04/11 01:34:04;;;;;;;46.60;10.27;;;;;;;7.81;100.00;100735.41;5235100;28;20499;-70
2023/04/11 01:36:36;;;;;;;33.33;8.63;;;;;;;7.76;100.00;100745.78;5242242;28;20033;-71
2023/04/11 01:39:07;;;;;;;31.93;7.53;;;;;;;7.76;100.00;100755.28;5242208;28;20060;-72
2023/04/11 01:41:40;;;;;;;33.33;8.27;;;;;;;7.74;100.00;100759.63;5242009;28;20025;-71
2023/04/11 01:44:12;;;;;;;34.70;8.30;;;;;;;7.65;100.00;100758.78;5242182;28;20037;-71
2023/04/11 01:46:44;;;;;;;35.53;10.30;;;;;;;7.66;100.00;100770.91;5241928;28;20469;-73
2023/04/11 01:49:17;;;;;;;33.40;8.67;;;;;;;7.57;100.00;100777.81;5242050;28;20052;-71
2023/04/11 01:51:49;;;;;;;36.20;9.20;;;;;;;7.57;100.00;100773.50;5241925;28;20264;-72
2023/04/11 01:54:20;;;;;;;41.87;10.10;;;;;;;7.57;100.00;100778.69;5241991;28;20032;-72
2023/04/11 01:56:53;;;;;;;32.63;8.57;;;;;;;7.57;100.00;100775.22;5241789;28;20040;-71
2023/04/11 01:59:25;;;;;;;33.25;9.30;;;;;;;7.56;100.00;100787.31;5241920;28;20052;-71
2023/04/11 02:01:56;;;;;;;35.60;8.70;;;;;;;7.54;100.00;100788.19;5239764;28;20033;-71
2023/04/11 02:04:27;;;;;;;40.00;9.70;;;;;;;7.55;100.00;100785.59;5241736;28;20074;-71
2023/04/11 02:06:59;;;;;;;34.20;8.73;;;;;;;7.53;100.00;100789.06;5241428;28;20040;-72
2023/04/11 02:09:30;;;;;;;38.07;9.40;;;;;;;7.55;100.00;100792.50;5241462;28;20068;-72
2023/04/11 02:12:02;;;;;;;33.37;9.23;;;;;;;7.55;100.00;100795.09;5241772;28;20049;-72
2023/04/11 02:14:41;;;;;;;28.07;10.80;;;;;;;7.64;100.00;100795.94;5241713;28;20033;-73
2023/04/11 02:17:13;;;;;;;37.10;10.15;;;;;;;7.69;100.00;100795.94;5241663;28;20099;-72
2023/04/11 02:19:44;;;;;;;36.77;9.27;;;;;;;7.66;100.00;100812.41;5241309;28;20041;-70
2023/04/11 02:22:16;;;;;;;32.80;8.37;;;;;;;7.66;100.00;100799.44;5241558;28;20491;-71
2023/04/11 02:24:50;;;;;;;29.80;8.13;;;;;;;7.70;100.00;100804.63;5241519;28;20068;-71
2023/04/11 02:27:21;;;;;;;29.30;9.63;;;;;;;7.73;100.00;100805.47;5241460;28;20473;-71
2023/04/11 02:29:52;;;;;;;29.67;8.77;;;;;;;7.77;100.00;100803.75;5241072;28;20084;-72
2023/04/11 02:32:25;;;;;;;30.40;7.33;;;;;;;7.74;100.00;100811.53;5241115;28;20042;-71
2023/04/11 02:34:56;;;;;;;26.45;8.32;;;;;;;7.74;100.00;100817.56;5241607;28;20099;-72
2023/04/11 02:37:27;;;;;;;32.60;10.13;;;;;;;7.73;100.00;100807.19;5241090;28;20034;-72
2023/04/11 02:40:01;;;;;;;29.97;7.63;;;;;;;7.77;100.00;100811.53;5239933;28;20400;-71
2023/04/11 02:42:32;;;;;;;29.33;7.43;;;;;;;7.81;100.00;100819.31;5240294;28;20030;-71
2023/04/11 02:45:04;;;;;;;25.60;6.80;;;;;;;7.83;100.00;100817.56;5241297;28;20103;-71
2023/04/11 02:47:36;;;;;;;33.90;8.70;;;;;;;7.82;100.00;100809.78;5241398;28;20033;-71
2023/04/11 02:50:08;;;;;;;25.40;8.93;;;;;;;7.85;100.00;100820.16;5241003;28;20037;-72
2023/04/11 02:52:41;;;;;;;29.27;8.47;;;;;;;7.85;99.59;100809.78;5241014;28;20413;-71
2023/04/11 02:55:12;;;;;;;30.73;7.35;;;;;;;7.86;99.65;100814.13;5240108;28;20029;-72
2023/04/11 02:57:44;;;;;;;26.83;8.27;;;;;;;7.86;98.93;100816.72;5239927;28;20575;-71
2023/04/11 03:00:18;;;;;;;32.50;7.72;;;;;;;7.82;99.58;100814.97;5241185;28;20373;-71
2023/04/11 03:02:49;;;;;;;33.28;8.07;;;;;;;7.80;99.23;100824.50;5240763;28;20032;-72
2023/04/11 03:05:20;;;;;;;25.97;7.07;;;;;;;7.78;98.94;100821.06;5241198;28;20112;-72
2023/04/11 03:07:52;;;;;;;27.30;7.33;;;;;;;7.75;98.92;100821.06;5241188;28;20461;-71
2023/04/11 03:10:23;;;;;;;27.07;6.40;;;;;;;7.77;98.19;100814.13;5241135;28;20041;-71
2023/04/11 03:12:55;;;;;;;24.93;7.27;;;;;;;7.76;97.62;100820.16;5241102;28;20037;-71
2023/04/11 03:15:26;;;;;;;28.20;6.40;;;;;;;7.72;97.09;100828.84;5241161;28;20033;-73
2023/04/11 03:17:58;;;;;;;20.43;5.53;;;;;;;7.72;96.96;100823.66;5241106;28;20055;-71
2023/04/11 03:20:29;;;;;;;18.63;5.10;;;;;;;7.71;95.94;100837.47;5241976;28;20037;-72
2023/04/11 03:23:00;;;;;;;22.37;5.97;;;;;;;7.62;95.99;100836.59;5244557;28;20030;-72
2023/04/11 03:25:32;;;;;;;22.43;5.17;;;;;;;7.62;96.33;100851.31;5244821;28;20429;-72
2023/04/11 03:28:04;;;;;;;28.07;5.63;;;;;;;7.59;96.14;100853.91;5244671;28;20053;-71
2023/04/11 03:30:39;;;;;;;19.43;5.13;;;;;;;7.58;95.64;100857.34;5244658;28;20362;-72
2023/04/11 03:33:10;;;;;;;22.90;5.50;;;;;;;7.61;95.50;100859.94;5244240;28;20389;-72
2023/04/11 03:35:42;;;;;;;22.33;5.20;;;;;;;7.62;95.31;100856.50;5244275;28;20041;-72
2023/04/11 03:38:13;;;;;;;19.10;4.67;;;;;;;7.61;95.01;100853.03;5244707;28;20130;-72
2023/04/11 03:40:45;;;;;;;18.80;5.13;;;;;;;7.59;94.66;100861.69;5244161;28;20037;-71
2023/04/11 03:43:16;;;;;;;24.53;4.87;;;;;;;7.54;94.89;100861.69;5244609;28;20086;-73
2023/04/11 03:45:48;;;;;;;24.67;5.03;;;;;;;7.52;95.08;100858.22;5244396;28;20025;-71
2023/04/11 03:48:20;;;;;;;19.23;4.97;;;;;;;7.51;95.08;100860.81;5244275;28;20037;-72
2023/04/11 03:50:51;;;;;;;13.47;4.37;;;;;;;7.49;95.04;100868.59;5244274;28;20034;-71
2023/04/11 03:53:23;;;;;;;19.00;4.17;;;;;;;7.51;94.33;100871.19;5243987;28;20034;-71
2023/04/11 03:55:54;;;;;;;18.37;4.13;;;;;;;7.48;94.65;100862.53;5243982;28;20635;-71
2023/04/11 03:58:26;;;;;;;21.33;6.00;;;;;;;7.49;93.78;100869.47;5243961;28;20034;-73
2023/04/11 04:00:57;;;;;;;14.37;4.17;;;;;;;7.42;94.48;100867.72;5244106;28;20163;-71
2023/04/11 04:03:28;;;;;;;26.07;7.50;;;;;;;7.39;94.14;100867.72;5243649;28;20029;-71
2023/04/11 04:06:00;;;;;;;17.47;5.00;;;;;;;7.36;94.49;100878.09;5244064;28;20030;-71
2023/04/11 04:08:31;;;;;;;18.90;5.67;;;;;;;7.36;94.27;100877.22;5244091;28;20033;-72
2023/04/11 04:11:03;;;;;;;24.40;5.20;;;;;;;7.30;94.75;100878.94;5243064;28;20091;-72
2023/04/11 04:13:34;;;;;;;20.20;5.43;;;;;;;7.32;94.59;100880.66;5243851;28;20059;-72
2023/04/11 04:16:06;;;;;;;23.37;5.57;;;;;;;7.30;95.10;100865.09;5243535;28;20026;-71
2023/04/11 04:18:38;;;;;;;23.07;5.67;;;;;;;7.22;95.54;100866.81;5243852;28;20040;-71
2023/04/11 04:21:09;;;;;;;29.17;7.07;;;;;;;7.24;95.29;100868.53;5243698;28;20037;-72
2023/04/11 04:23:46;;;;;;;22.30;5.93;;;;;;;7.14;96.18;100882.34;5243630;28;20473;-69
2023/04/11 04:26:23;;;;;;;22.02;5.32;;;;;;;7.09;96.48;100878.88;5243546;28;20033;-69
2023/04/11 04:28:56;;;;;;;20.85;5.18;;;;;;;7.01;97.15;100880.59;5243561;28;20057;-69
2023/04/11 04:31:32;;;;;;;26.65;8.93;;;;;;;7.01;97.32;100878.00;5243349;28;20053;-71
2023/04/11 04:34:08;;;;;;;20.40;6.55;;;;;;;6.92;98.39;100899.53;5241588;28;20466;-69
2023/04/11 04:36:45;;;;;;;26.92;7.75;;;;;;;6.88;98.48;100901.25;5242007;28;20021;-70
2023/04/11 04:39:18;;;;;;;16.90;6.45;;;;;;;6.87;98.82;100898.66;5243435;28;20083;-70
2023/04/11 04:41:56;;;;;;;23.25;7.00;;;;;;;6.90;98.46;100902.13;5243171;28;20030;-70
2023/04/11 04:44:28;;;;;;;22.30;7.10;;;;;;;6.89;98.33;100902.13;5243199;28;20046;-71
2023/04/11 04:46:59;;;;;;;19.63;6.20;;;;;;;6.87;98.58;100909.88;5243171;28;20040;-70
2023/04/11 04:49:31;;;;;;;30.33;8.10;;;;;;;6.78;99.32;100914.16;5243002;28;20036;-70
2023/04/11 04:52:02;;;;;;;20.80;6.97;;;;;;;6.70;99.85;100922.78;5243039;28;20092;-69
2023/04/11 04:54:34;;;;;;;27.10;7.00;;;;;;;6.72;100.00;100925.38;5242839;28;20033;-69
2023/04/11 04:57:06;;;;;;;22.27;6.33;;;;;;;6.64;99.99;100916.69;5243088;28;20053;-69
2023/04/11 04:59:37;;;;;;;22.80;5.95;;;;;;;6.71;99.79;100928.81;5242731;28;20033;-70
2023/04/11 05:02:09;;;;;;;27.67;5.83;;;;;;;6.64;100.00;100937.44;5242050;28;20103;-69
2023/04/11 05:04:40;;;;;;;20.63;5.57;;;;;;;6.57;100.00;100941.72;5242342;28;20030;-69
2023/04/11 05:07:13;;;;;;;19.07;5.00;;;;;;;6.62;100.00;100941.72;5242417;28;20039;-69
2023/04/11 05:09:44;;;;;;;21.45;4.85;;;;;;;6.62;100.00;100957.25;5242337;28;20025;-69
2023/04/11 05:12:16;;;;;;;20.17;6.37;;;;;;;6.61;100.00;100950.34;5242195;28;20084;-69
2023/04/11 05:14:47;;;;;;;22.70;5.10;;;;;;;6.54;100.00;100946.88;5241995;28;20021;-69
2023/04/11 05:17:19;;;;;;;22.50;5.33;;;;;;;6.46;100.00;100953.72;5242112;28;20473;-69
2023/04/11 05:19:50;;;;;;;22.40;5.93;;;;;;;6.43;100.00;100953.69;5241979;28;20029;-69
2023/04/11 05:22:22;;;;;;;19.13;4.77;;;;;;;6.40;100.00;100951.94;5241999;28;20117;-69
2023/04/11 05:24:53;;;;;;;18.00;4.87;;;;;;;6.40;100.00;100959.72;5241967;28;20033;-70
2023/04/11 05:27:25;;;;;;;20.10;6.20;;;;;;;6.37;100.00;100954.50;5241827;28;20392;-69
2023/04/11 05:29:57;;;;;;;19.10;5.50;;;;;;;6.40;100.00;100962.28;5242011;28;20068;-70
2023/04/11 05:32:28;;;;;;;17.27;5.10;;;;;;;6.37;100.00;100959.69;5241431;28;20042;-70
2023/04/11 05:35:00;;;;;;;21.23;4.97;;;;;;;6.41;100.00;100964.03;5241765;28;20021;-69
2023/04/11 05:37:31;;;;;;;24.60;5.00;;;;;;;6.35;100.00;100964.84;5241860;28;20029;-70
2023/04/11 05:40:03;;;;;;;19.00;4.73;;;;;;;6.40;100.00;100985.59;5241745;28;20040;-69
2023/04/11 05:42:34;;;;;;;17.93;5.47;;;;;;;6.41;100.00;100984.75;5241489;28;20087;-69
2023/04/11 05:45:06;;;;;;;17.23;4.83;;;;;;;6.48;100.00;100993.44;5241682;28;20427;-70
2023/04/11 05:47:37;;;;;;;15.97;4.40;;;;;;;6.48;100.00;100990.84;5241729;28;20033;-69
2023/04/11 05:50:09;;;;;;;16.53;4.80;;;;;;;6.47;100.00;100986.50;5241767;28;20287;-69
2023/04/11 05:52:41;;;;;;;13.20;3.95;;;;;;;6.53;99.93;101000.38;5241731;28;20369;-71
2023/04/11 05:55:12;;;;;;;13.87;3.97;;;;;;;6.58;99.86;101005.59;5241737;28;20030;-69
2023/04/11 05:57:44;;;;;;;15.23;4.20;;;;;;;6.58;99.82;100997.81;5241720;28;20029;-69
2023/04/11 06:00:16;;;;;;;21.20;5.13;;;;;;;6.65;99.62;101004.78;5241525;28;20041;-69
2023/04/11 06:02:47;;;;;;;22.40;5.30;;;;;;;6.73;98.67;101016.06;5241203;28;20177;-70
2023/04/11 06:05:20;;;;;;;16.43;4.87;;;;;;;6.69;98.73;101003.94;5241551;28;20291;-69
2023/04/11 06:07:52;;;;;;;15.23;4.03;;;;;;;6.72;98.66;101013.47;5241564;28;20120;-69
2023/04/11 06:10:24;;;;;;;22.52;3.95;;;;;;;6.73;98.28;101021.25;5240191;28;20075;-70
2023/04/11 06:12:56;;;;;;;18.77;4.80;;;;;;;6.72;98.50;101013.47;5241476;28;20402;-70
2023/04/11 06:15:28;;;;;;;19.27;4.85;;;;;;;6.75;98.39;101027.28;5241741;28;20203;-70
2023/04/11 06:17:59;;;;;;;15.07;6.20;;;;;;;6.71;99.01;101015.19;5241341;28;20030;-69
2023/04/11 06:20:31;;;;;;;18.43;4.93;;;;;;;6.84;98.54;101017.84;5240870;28;20038;-71
2023/04/11 06:23:02;;;;;;;20.80;5.10;;;;;;;6.88;98.45;101022.19;5241202;28;20385;-69
2023/04/11 06:25:34;;;;;;;16.77;4.50;;;;;;;6.97;97.60;101024.84;5223928;28;20060;-70
2023/04/11 06:28:05;;;;;;;20.50;5.07;;;;;;;7.11;96.51;101028.38;5241334;28;20050;-71
2023/04/11 06:30:36;;;;;;;16.57;4.90;;;;;;;7.15;96.62;101034.47;5241776;28;20133;-69
2023/04/11 06:33:08;;;;;;;18.03;5.10;;;;;;;7.21;95.96;101026.72;5241111;28;20034;-70
2023/04/11 06:35:39;;;;;;;21.13;4.73;;;;;;;7.25;96.24;101031.03;5241469;28;20477;-70
2023/04/11 06:38:10;;;;;;;18.90;5.93;;;;;;;7.25;95.94;101025.84;5241059;28;20029;-69
2023/04/11 06:40:42;;;;;;;18.53;5.47;;;;;;;7.30;94.76;101028.47;5241074;28;20527;-71
2023/04/11 06:43:13;;;;;;;14.93;5.80;;;;;;;7.39;95.18;101032.81;5241134;28;20116;-69
2023/04/11 06:45:45;;;;;;;18.50;5.13;;;;;;;7.45;95.41;101044.13;5240813;28;20037;-69
2023/04/11 06:48:17;;;;;;;19.00;6.53;;;;;;;7.47;93.58;101036.31;5241106;28;20055;-70
2023/04/11 06:50:48;;;;;;;17.00;5.70;;;;;;;7.54;93.13;101052.78;5240791;28;20037;-70
2023/04/11 06:53:20;;;;;;;16.23;4.93;;;;;;;7.58;93.38;101047.63;5240557;28;20079;-69
2023/04/11 06:55:51;;;;;;;21.47;6.87;;;;;;;7.64;92.76;101047.63;5242822;28;20385;-70
2023/04/11 06:58:23;;;;;;;20.90;6.20;;;;;;;7.75;92.34;101065.84;5244729;28;20033;-69
2023/04/11 07:00:54;;;;;;;18.70;4.40;;;;;;;7.87;92.29;101058.94;5244929;28;20061;-69
2023/04/11 07:03:26;;;;;;;22.73;7.17;;;;;;;7.91;91.35;101068.47;5244248;28;20033;-70
2023/04/11 07:05:57;;;;;;;21.73;6.20;;;;;;;7.87;89.93;101064.13;5244521;28;20362;-71
2023/04/11 07:08:28;;;;;;;21.17;7.53;;;;;;;7.94;90.38;101084.06;5244188;28;20125;-70
2023/04/11 07:11:00;;;;;;;21.07;5.83;;;;;;;8.06;89.04;101078.03;5244494;28;20417;-70
2023/04/11 07:13:31;;;;;;;22.90;6.30;;;;;;;8.16;88.68;101074.59;5244457;28;20029;-70
2023/04/11 07:16:03;;;;;;;25.33;6.27;;;;;;;8.17;88.27;101072.00;5244378;28;20029;-70
2023/04/11 07:18:34;;;;;;;20.23;7.10;;;;;;;8.09;88.26;101078.91;5244348;28;20041;-70
2023/04/11 07:21:09;;;;;;;18.47;5.80;;;;;;;8.03;88.82;101078.88;5244105;28;20100;-70
2023/04/11 07:23:42;;;;;;;20.25;5.60;;;;;;;8.17;88.99;101082.38;5244270;28;20033;-70
2023/04/11 07:26:15;;;;;;;21.52;6.82;;;;;;;8.26;87.52;101083.25;5243851;28;20038;-71
2023/04/11 07:28:47;;;;;;;19.77;7.25;;;;;;;8.38;86.53;101086.72;5243955;28;20084;-70
2023/04/11 07:31:20;;;;;;;18.03;5.93;;;;;;;8.72;86.35;101097.16;5244061;28;20113;-69
2023/04/11 07:33:51;;;;;;;17.67;6.18;;;;;;;8.70;83.34;101096.31;5243607;28;20080;-71
2023/04/11 07:36:23;;;;;;;17.90;6.00;;;;;;;8.70;82.29;101114.50;5244029;28;20033;-70
2023/04/11 07:38:54;;;;;;;15.07;4.50;;;;;;;8.68;82.89;101105.00;5244041;28;20029;-70
2023/04/11 07:41:26;;;;;;;14.57;5.00;;;;;;;8.75;83.01;101122.31;5243887;28;20075;-71
2023/04/11 07:43:57;;;;;;;20.03;5.47;;;;;;;8.68;81.02;101110.19;5243952;28;20037;-70
2023/04/11 07:46:28;;;;;;;14.73;4.27;;;;;;;8.72;80.51;101114.50;5243897;28;20369;-71
2023/04/11 07:49:00;;;;;;;17.10;4.63;;;;;;;8.98;79.60;101100.63;5243629;28;20040;-70
2023/04/11 07:51:31;;;;;;;17.20;4.87;;;;;;;9.26;79.30;101127.47;5243510;28;20038;-71
2023/04/11 07:54:03;;;;;;;15.17;5.40;;;;;;;9.02;78.93;101105.84;5243777;28;20385;-71
2023/04/11 07:56:34;;;;;;;21.23;6.47;;;;;;;9.01;79.43;101108.44;5242380;28;20045;-70
2023/04/11 07:59:05;;;;;;;19.00;5.17;;;;;;;9.15;77.39;101116.22;5243772;28;20473;-70
2023/04/11 08:01:37;;;;;;;13.17;4.10;;;;;;;9.16;76.59;101117.94;5243486;28;20064;-69
2023/04/11 08:04:08;;;;;;;15.83;5.17;;;;;;;9.17;76.38;101125.75;5243197;28;20083;-70
2023/04/11 08:06:40;;;;;;;16.23;4.63;;;;;;;9.19;75.40;101124.00;5242858;28;20030;-71
2023/04/11 08:09:11;;;;;;;16.33;5.33;;;;;;;9.22;74.45;101126.59;5243537;28;20061;-71
2023/04/11 08:11:42;;;;;;;11.50;3.87;;;;;;;9.22;73.33;101138.75;5243435;28;20048;-70
2023/04/11 08:14:14;;;;;;;13.33;4.90;;;;;;;9.22;73.14;101146.53;5225809;28;20065;-71
2023/04/11 08:16:46;;;;;;;11.13;3.77;;;;;;;9.41;71.90;101142.19;5243879;28;20044;-70
2023/04/11 08:19:17;;;;;;;14.67;3.80;;;;;;;9.58;73.29;101140.41;5244857;28;20272;-70
2023/04/11 08:21:49;;;;;;;16.60;4.57;;;;;;;9.73;71.35;101144.69;5245725;28;20037;-70
2023/04/11 08:24:20;;;;;;;16.37;4.67;;;;;;;9.52;71.52;101152.56;5246889;28;20112;-72
2023/04/11 08:26:51;;;;;;;12.00;3.47;;;;;;;9.53;71.73;101146.47;5246745;28;20036;-71
2023/04/11 08:29:23;;;;;;;12.07;3.37;;;;;;;9.60;70.67;101158.63;5247748;28;20144;-70
2023/04/11 08:31:54;;;;;;;12.57;3.57;;;;;;;9.73;69.72;101165.50;5250824;28;20041;-70
2023/04/11 08:34:26;;;;;;;13.23;3.13;;;;;;;9.92;68.95;101155.03;5253154;28;20033;-71
2023/04/11 08:36:57;;;;;;;13.73;4.03;;;;;;;9.91;65.39;101151.56;5252991;28;20038;-70
2023/04/11 08:39:28;;;;;;;14.17;3.67;;;;;;;9.84;65.70;101155.94;5251826;28;20048;-71
2023/04/11 08:42:00;;;;;;;11.47;4.10;;;;;;;9.77;67.33;101151.63;5252450;28;20103;-72
2023/04/11 08:44:31;;;;;;;27.63;4.60;;;;;;;9.99;66.85;101167.16;5253671;28;20038;-69
2023/04/11 08:47:04;;;;;;;15.50;4.07;;;;;;;10.04;66.41;101165.41;5253305;28;20026;-70
2023/04/11 08:49:35;;;;;;;11.20;3.17;;;;;;;10.06;67.12;101181.00;5251866;28;20041;-71
2023/04/11 08:52:07;;;;;;;12.97;4.07;;;;;;;10.10;65.33;101170.56;5248226;28;20060;-71
2023/04/11 08:54:39;;;;;;;12.53;3.30;;;;;;;9.74;65.34;101161.16;5246803;28;20048;-71
2023/04/11 08:57:20;;;;;;;13.03;3.53;;;;;;;9.85;66.68;101180.22;5245662;28;20116;-70
2023/04/11 09:00:01;;;;;;;17.80;4.35;;;;;;;10.06;66.61;101158.44;5245166;28;20546;-70
2023/04/11 09:02:32;;;;;;;13.73;4.45;;;;;;;10.06;65.17;101166.25;5243840;28;20449;-70
2023/04/11 09:05:04;;;;;;;8.80;2.67;;;;;;;10.08;64.55;101174.06;5242399;28;20037;-71
2023/04/11 09:07:48;;;;;;;11.33;3.70;;;;;;;10.08;65.76;101166.25;5242651;28;20107;-71
2023/04/11 09:10:21;;;;;;;15.18;4.03;;;;;;;10.00;65.27;101164.53;5242755;28;20472;-71
2023/04/11 09:12:54;;;;;;;13.65;4.45;;;;;;;10.08;65.44;101169.72;5242435;28;20159;-71
2023/04/11 09:15:27;;;;;;;15.10;5.22;;;;;;;10.49;63.14;101165.19;5242332;28;20354;-71
2023/04/11 09:17:59;;;;;;;13.73;4.13;;;;;;;10.45;61.04;101172.19;5241458;28;20457;-71
2023/04/11 09:20:30;;;;;;;12.27;3.23;;;;;;;10.93;61.47;101175.31;5240486;28;20033;-72
2023/04/11 09:23:01;;;;;;;10.07;2.97;;;;;;;10.80;60.07;101176.25;5241970;28;20030;-72
2023/04/11 09:25:43;;;;;;;9.60;2.97;;;;;;;11.06;58.23;101175.19;5241879;28;20224;-71
2023/04/11 09:28:14;;;;;;;11.15;3.15;;;;;;;11.21;55.72;101188.13;5241665;28;20050;-71
2023/04/11 09:30:51;;;;;;;16.60;4.23;;;;;;;12.17;56.10;101169.69;5241803;28;20090;-71
2023/04/11 09:33:28;;;;;;;9.70;3.60;;;;;;;12.52;53.03;101170.91;5241418;28;20029;-71
2023/04/11 09:36:00;;;;;;;12.85;3.20;;;;;;;11.45;56.20;101171.34;5241761;28;20032;-71
2023/04/11 09:38:35;;;;;;;14.13;3.23;;;;;;;11.32;57.22;101181.06;5241778;28;20026;-72
2023/04/11 09:41:07;;;;;;;14.20;3.35;;;;;;;11.00;57.32;101177.88;5241785;28;20424;-72
2023/04/11 09:43:54;;;;;;;11.23;2.75;;;;;;;11.59;55.93;101196.44;5241566;28;20030;-71
2023/04/11 09:46:25;;;;;;;12.38;2.67;;;;;;;12.08;53.81;101198.53;5241660;28;20075;-70
2023/04/11 09:48:56;;;;;;;10.93;2.47;;;;;;;12.55;49.98;101183.94;5241724;28;20029;-72
2023/04/11 09:51:28;;;;;;;10.23;2.80;;;;;;;13.44;48.95;101179.06;5241376;28;20040;-71
2023/04/11 09:54:00;;;;;;;11.33;2.80;;;;;;;13.36;46.84;101182.69;5241775;28;20398;-72
2023/04/11 09:56:35;;;;;;;9.73;3.08;;;;;;;13.16;47.69;101196.97;5241588;28;20045;-72
2023/04/11 09:59:07;;;;;;;10.70;3.00;;;;;;;12.45;47.50;101176.28;5241608;28;20045;-71
2023/04/11 10:01:40;;;;;;;7.00;2.23;;;;;;;12.96;44.95;101192.06;5240218;28;20029;-72
2023/04/11 10:04:12;;;;;;;10.32;2.50;;;;;;;13.99;45.10;101182.34;5240830;28;20457;-70
2023/04/11 10:07:01;;;;;;;11.88;3.17;;;;;;;13.43;44.10;101185.19;5239742;28;20034;-71
2023/04/11 10:09:36;;;;;;;8.55;2.63;;;;;;;13.94;43.60;101180.72;5241374;28;20322;-72
2023/04/11 10:12:08;;;;;;;11.20;3.05;;;;;;;13.68;42.77;101169.88;5241284;28;20034;-71
2023/04/11 10:14:40;;;;;;;10.93;2.77;;;;;;;14.43;42.33;101192.78;5241187;28;20033;-70
2023/04/11 10:17:19;;;;;;;11.13;3.08;;;;;;;14.55;42.29;101176.78;5241099;28;20314;-71
2023/04/11 10:19:55;;;;;;;9.38;3.35;;;;;;;14.34;40.71;101178.09;5240762;28;20033;-71
2023/04/11 10:22:42;;;;;;;7.28;2.60;;;;;;;14.57;41.08;101174.09;5241161;28;20372;-72
2023/04/11 10:25:18;;;;;;;9.55;2.63;;;;;;;14.44;39.56;101175.28;5240925;28;20075;-72
2023/04/11 10:27:52;;;;;;;7.18;2.10;;;;;;;14.88;39.14;101166.41;5240959;28;20088;-71
2023/04/11 10:30:38;;;;;;;9.10;2.95;;;;;;;14.68;39.81;101174.75;5244192;28;20061;-71
2023/04/11 10:33:16;;;;;;;9.50;2.13;;;;;;;14.50;40.13;101177.75;5245154;28;20052;-71
2023/04/11 10:36:08;;;;;;;9.40;2.65;;;;;;;15.28;39.67;101161.91;5245067;28;20600;-73
2023/04/11 10:38:40;;;;;;;7.70;2.15;;;;;;;15.39;37.80;101172.09;5245074;28;20164;-71
2023/04/11 10:41:17;;;;;;;6.97;2.70;;;;;;;15.54;38.66;101187.47;5245391;28;20475;-71
2023/04/11 10:43:49;;;;;;;9.63;2.45;;;;;;;14.26;38.93;101166.06;5245226;28;20037;-74
2023/04/11 10:46:24;;;;;;;10.25;2.58;;;;;;;14.23;39.35;101177.47;5245325;28;20477;-71
2023/04/11 10:48:57;;;;;;;8.50;2.47;;;;;;;14.33;37.43;101163.28;5245156;28;20355;-71
2023/04/11 10:51:30;;;;;;;5.93;2.20;;;;;;;14.56;36.81;101175.84;5245135;28;20501;-71
2023/04/11 10:54:02;;;;;;;6.38;2.38;;;;;;;14.56;36.73;101175.84;5245045;28;20033;-71
2023/04/11 10:56:45;;;;;;;6.57;2.63;;;;;;;15.46;36.94;101177.16;5245246;28;20041;-71
2023/04/11 10:59:33;;;;;;;10.55;2.72;;;;;;;15.65;36.84;101169.66;5245195;28;20473;-72
2023/04/11 11:02:04;;;;;;;9.13;2.40;;;;;;;15.82;37.09;101174.44;5244898;28;20079;-70
2023/04/11 11:04:37;;;;;;;7.10;2.50;;;;;;;16.87;34.99;101173.94;5244252;28;20095;-71
2023/04/11 11:07:13;;;;;;;8.77;3.15;;;;;;;15.55;36.08;101181.28;5244954;28;20025;-71
2023/04/11 11:09:49;;;;;;;12.10;3.20;;;;;;;14.84;36.73;101174.38;5244883;28;20032;-69
2023/04/11 11:12:21;;;;;;;8.45;2.30;;;;;;;14.89;37.44;101176.00;5244653;28;20026;-71
2023/04/11 11:14:53;;;;;;;7.73;2.33;;;;;;;15.17;35.11;101183.19;5244698;28;20489;-72
2023/04/11 11:17:24;;;;;;;6.78;2.72;;;;;;;15.90;35.03;101182.13;5244712;28;20052;-70
2023/04/11 11:19:56;;;;;;;5.67;2.00;;;;;;;17.01;34.68;101184.00;5244568;28;20029;-70
2023/04/11 11:22:27;;;;;;;11.33;2.30;;;;;;;16.90;33.44;101210.66;5244495;28;20029;-72
2023/04/11 11:25:09;;;;;;;6.77;2.57;;;;;;;15.17;34.66;101177.94;5244294;28;20072;-72
2023/04/11 11:27:40;;;;;;;7.13;2.30;;;;;;;15.55;33.81;101183.06;5244360;28;20036;-71
2023/04/11 11:30:12;;;;;;;6.63;2.37;;;;;;;16.13;31.49;101184.09;5243164;28;20037;-71
2023/04/11 11:32:44;;;;;;;7.82;2.90;;;;;;;14.92;33.61;101182.94;5243999;28;20140;-71
2023/04/11 11:35:15;;;;;;;5.80;2.03;;;;;;;15.38;33.37;101184.38;5244319;28;20033;-71
2023/04/11 11:37:48;;;;;;;6.07;2.27;;;;;;;16.07;32.74;101191.28;5244359;28;20029;-71
2023/04/11 11:40:21;;;;;;;7.78;2.00;;;;;;;15.73;33.33;101187.84;5242557;28;20448;-71
2023/04/11 11:42:52;;;;;;;;;;;;;;;17.42;31.88;101194.91;5244294;28;20041;-71
2023/04/11 11:45:24;;;;;;;7.18;2.33;;;;;;;17.40;31.73;101198.50;5243883;28;20019;-71